Time;durP1;ratioP1;P1;durP2;ratioP2;P2;SDS_P1;SDS_P2;PMS_P1;PMS_P2;Temp;Humidity;BMP_temperature;BMP_pressure;BME280_temperature;BME280_humidity;BME280_pressure;Samples;Min_cycle;Max_cycle;Signal;HPM_P1;HPM_P2
2024/03/26 00:00:01;;;;;;;8.63;4.43;;;5.90;99.90;;;;;;5071746;28;20072;-72
2024/03/26 00:02:26;;;;;;;8.80;4.78;;;5.90;99.90;;;;;;5072884;28;20074;-73
2024/03/26 00:04:52;;;;;;;11.45;4.40;;;5.80;99.90;;;;;;5073182;28;20049;-73
2024/03/26 00:07:18;;;;;;;8.93;4.30;;;5.80;99.90;;;;;;5073332;28;20044;-73
2024/03/26 00:09:44;;;;;;;11.48;4.35;;;5.80;99.90;;;;;;5068730;28;20040;-72
2024/03/26 00:12:10;;;;;;;9.02;4.25;;;5.80;99.90;;;;;;5068372;28;20093;-73
2024/03/26 00:14:36;;;;;;;16.20;5.07;;;5.80;99.90;;;;;;5066460;28;20037;-73
2024/03/26 00:17:01;;;;;;;10.02;5.10;;;5.80;99.90;;;;;;5046497;28;20111;-72
2024/03/26 00:19:28;;;;;;;14.25;5.38;;;5.90;99.90;;;;;;5072520;28;20035;-73
2024/03/26 00:21:55;;;;;;;8.70;4.30;;;5.90;99.90;;;;;;5071696;28;20052;-73
2024/03/26 00:24:22;;;;;;;12.48;4.88;;;5.80;99.90;;;;;;5072372;28;20040;-73
2024/03/26 00:26:48;;;;;;;10.40;4.93;;;5.90;99.90;;;;;;5072647;28;20407;-73
2024/03/26 00:29:14;;;;;;;11.70;5.45;;;5.90;99.90;;;;;;5071263;28;20127;-73
2024/03/26 00:31:39;;;;;;;6.82;4.45;;;5.80;99.90;;;;;;5072864;28;20062;-73
2024/03/26 00:34:05;;;;;;;10.38;4.90;;;5.80;99.90;;;;;;5071218;28;20428;-73
2024/03/26 00:36:31;;;;;;;10.77;4.35;;;5.80;99.90;;;;;;5071101;28;20049;-73
2024/03/26 00:38:57;;;;;;;10.40;4.43;;;5.70;99.90;;;;;;5072513;28;20036;-73
2024/03/26 00:41:23;;;;;;;17.23;4.97;;;5.70;99.90;;;;;;5072468;28;20089;-73
2024/03/26 00:43:49;;;;;;;17.27;5.88;;;5.70;99.90;;;;;;5072200;28;20085;-73
2024/03/26 00:46:14;;;;;;;8.98;4.80;;;5.80;99.90;;;;;;5072304;28;20038;-73
2024/03/26 00:48:40;;;;;;;8.77;4.60;;;5.80;99.90;;;;;;5071071;28;20065;-73
2024/03/26 00:51:06;;;;;;;10.55;5.60;;;5.80;99.90;;;;;;5072113;28;20035;-73
2024/03/26 00:53:32;;;;;;;11.57;4.35;;;5.80;99.90;;;;;;5071706;28;20105;-73
2024/03/26 00:55:58;;;;;;;12.68;5.07;;;5.80;99.90;;;;;;5072493;28;20040;-73
2024/03/26 00:58:24;;;;;;;10.05;4.40;;;5.80;99.90;;;;;;5072359;28;20125;-73
2024/03/26 01:00:49;;;;;;;13.40;4.70;;;5.80;99.90;;;;;;5070551;28;20044;-73
2024/03/26 01:03:15;;;;;;;11.25;4.20;;;5.70;99.90;;;;;;5063396;28;20124;-72
2024/03/26 01:05:50;;;;;;;9.95;5.10;;;5.70;99.90;;;;;;5071902;28;20124;-73
2024/03/26 01:08:16;;;;;;;10.52;4.95;;;5.70;99.90;;;;;;5071919;28;20037;-73
2024/03/26 01:10:43;;;;;;;12.32;4.78;;;5.70;99.90;;;;;;5071916;28;20039;-73
2024/03/26 01:13:08;;;;;;;7.45;4.68;;;5.70;99.90;;;;;;5071640;28;20048;-73
2024/03/26 01:15:34;;;;;;;8.52;5.00;;;5.60;99.90;;;;;;5070950;28;20482;-73
2024/03/26 01:18:00;;;;;;;7.07;4.20;;;5.70;99.90;;;;;;5070615;28;20473;-72
2024/03/26 01:20:25;;;;;;;8.57;4.60;;;5.70;99.90;;;;;;5071669;28;20404;-72
2024/03/26 01:22:51;;;;;;;9.02;4.22;;;5.70;99.90;;;;;;5071590;28;20043;-73
2024/03/26 01:25:16;;;;;;;12.07;5.00;;;5.60;99.90;;;;;;5071077;28;20127;-73
2024/03/26 01:27:42;;;;;;;10.93;5.00;;;5.60;99.90;;;;;;5072651;28;20488;-73
2024/03/26 01:30:08;;;;;;;9.52;4.90;;;5.60;99.90;;;;;;5070633;28;20461;-73
2024/03/26 01:32:34;;;;;;;10.85;4.15;;;5.60;99.90;;;;;;5071666;28;20040;-72
2024/03/26 01:34:59;;;;;;;9.20;3.70;;;5.60;99.90;;;;;;5072063;28;20044;-73
2024/03/26 01:37:25;;;;;;;8.85;5.00;;;5.60;99.90;;;;;;5071843;28;20432;-72
2024/03/26 01:39:50;;;;;;;11.95;4.75;;;5.60;99.90;;;;;;5072249;28;20033;-73
2024/03/26 01:42:16;;;;;;;10.80;4.68;;;5.60;99.90;;;;;;5073076;28;20717;-73
2024/03/26 01:44:42;;;;;;;13.90;4.72;;;5.60;99.90;;;;;;5072661;28;20042;-72
2024/03/26 01:47:07;;;;;;;13.88;4.85;;;5.60;99.90;;;;;;5071213;28;20040;-73
2024/03/26 01:49:34;;;;;;;10.30;4.63;;;5.60;99.90;;;;;;5072088;28;20508;-73
2024/03/26 01:52:00;;;;;;;11.93;4.28;;;5.50;99.90;;;;;;5071940;28;20043;-72
2024/03/26 01:54:26;;;;;;;11.35;5.60;;;5.50;99.90;;;;;;5070995;28;20033;-73
2024/03/26 01:56:54;;;;;;;9.13;4.43;;;5.50;99.90;;;;;;5070056;28;20043;-72
2024/03/26 01:59:20;;;;;;;11.95;5.25;;;5.50;99.90;;;;;;5071201;28;20090;-73
2024/03/26 02:01:46;;;;;;;12.68;4.57;;;5.40;99.90;;;;;;5071396;28;20032;-72
2024/03/26 02:04:12;;;;;;;11.40;4.65;;;5.40;99.90;;;;;;5069684;28;20036;-73
2024/03/26 02:06:38;;;;;;;13.88;4.55;;;5.50;99.90;;;;;;5071143;28;20045;-73
2024/03/26 02:09:03;;;;;;;11.27;5.25;;;5.40;99.90;;;;;;5071081;28;20093;-73
2024/03/26 02:11:30;;;;;;;6.38;4.20;;;5.40;99.90;;;;;;5071422;28;20186;-73
2024/03/26 02:13:56;;;;;;;9.98;4.93;;;5.40;99.90;;;;;;5069567;28;20040;-72
2024/03/26 02:16:22;;;;;;;7.15;5.35;;;5.40;99.90;;;;;;5071089;28;20040;-73
2024/03/26 02:18:47;;;;;;;10.57;4.32;;;5.30;99.90;;;;;;5071198;28;20334;-72
2024/03/26 02:21:13;;;;;;;10.18;5.05;;;5.30;99.90;;;;;;5070920;28;20048;-72
2024/03/26 02:23:39;;;;;;;8.43;4.47;;;5.30;99.90;;;;;;5070860;28;20047;-72
2024/03/26 02:26:04;;;;;;;10.18;4.82;;;5.20;99.90;;;;;;5071191;28;20051;-72
2024/03/26 02:28:30;;;;;;;10.85;5.40;;;5.20;99.90;;;;;;5071186;28;20400;-72
2024/03/26 02:30:55;;;;;;;11.25;4.35;;;5.20;99.90;;;;;;5070953;28;20412;-72
2024/03/26 02:33:21;;;;;;;10.70;4.55;;;5.20;99.90;;;;;;5070544;28;20055;-73
2024/03/26 02:35:47;;;;;;;8.45;4.93;;;5.20;99.90;;;;;;5069724;28;20127;-72
2024/03/26 02:38:12;;;;;;;8.02;4.50;;;5.10;99.90;;;;;;5069631;28;20123;-72
2024/03/26 02:40:38;;;;;;;9.40;3.90;;;5.10;99.90;;;;;;5070295;28;20128;-72
2024/03/26 02:43:04;;;;;;;8.77;4.88;;;5.10;99.90;;;;;;5074425;28;20047;-72
2024/03/26 02:45:29;;;;;;;8.43;4.20;;;5.00;99.90;;;;;;5073385;28;20044;-70
2024/03/26 02:47:55;;;;;;;10.45;4.45;;;5.00;99.90;;;;;;5074590;28;20068;-71
2024/03/26 02:50:21;;;;;;;8.75;4.93;;;5.00;99.90;;;;;;5074217;28;20033;-71
2024/03/26 02:52:46;;;;;;;14.38;5.97;;;5.00;99.90;;;;;;5074035;28;20040;-70
2024/03/26 02:55:12;;;;;;;6.85;4.85;;;5.00;99.90;;;;;;5073232;28;20048;-73
2024/03/26 02:57:38;;;;;;;8.80;4.20;;;4.90;99.90;;;;;;5074558;28;20040;-73
2024/03/26 03:00:05;;;;;;;6.93;4.22;;;5.00;99.90;;;;;;5073018;28;20036;-73
2024/03/26 03:02:32;;;;;;;7.85;3.90;;;5.00;99.90;;;;;;5072652;28;20044;-71
2024/03/26 03:04:58;;;;;;;9.68;4.70;;;4.90;99.90;;;;;;5073165;28;20040;-70
2024/03/26 03:07:23;;;;;;;12.90;5.15;;;5.00;99.90;;;;;;5074200;28;20492;-70
2024/03/26 03:09:49;;;;;;;9.20;4.82;;;5.00;99.90;;;;;;5072753;28;20040;-70
2024/03/26 03:12:15;;;;;;;13.43;4.68;;;5.00;99.90;;;;;;5072555;28;20036;-70
2024/03/26 03:14:40;;;;;;;11.13;5.07;;;4.90;99.90;;;;;;5072926;28;20044;-70
2024/03/26 03:17:06;;;;;;;11.23;4.15;;;5.00;99.90;;;;;;5072808;28;20040;-71
2024/03/26 03:19:32;;;;;;;10.18;4.88;;;5.00;99.90;;;;;;5073758;28;20040;-70
2024/03/26 03:21:57;;;;;;;15.20;6.43;;;4.90;99.90;;;;;;5074173;28;20072;-71
2024/03/26 03:24:23;;;;;;;16.60;5.13;;;5.00;99.90;;;;;;5073637;28;20028;-70
2024/03/26 03:26:49;;;;;;;12.90;4.80;;;4.90;99.90;;;;;;5073767;28;20098;-70
2024/03/26 03:29:14;;;;;;;9.32;4.35;;;4.90;99.90;;;;;;5072454;28;20040;-71
2024/03/26 03:31:40;;;;;;;5.47;4.05;;;5.00;99.90;;;;;;5073868;28;20048;-71
2024/03/26 03:34:06;;;;;;;11.05;3.90;;;5.00;99.90;;;;;;5072095;28;20051;-70
2024/03/26 03:36:31;;;;;;;7.85;4.57;;;5.00;99.90;;;;;;5072531;28;20044;-70
2024/03/26 03:38:57;;;;;;;9.73;5.03;;;5.00;99.90;;;;;;5074041;28;20047;-71
2024/03/26 03:41:23;;;;;;;10.73;4.15;;;5.10;99.90;;;;;;5073633;28;20040;-71
2024/03/26 03:43:48;;;;;;;11.45;4.00;;;5.00;99.90;;;;;;5073193;28;20123;-71
2024/03/26 03:46:14;;;;;;;14.35;4.35;;;5.00;99.90;;;;;;5073644;28;20040;-70
2024/03/26 03:48:40;;;;;;;8.68;4.15;;;5.00;99.90;;;;;;5073438;28;20039;-70
2024/03/26 03:51:05;;;;;;;9.38;4.38;;;5.00;99.90;;;;;;5071891;28;20036;-70
2024/03/26 03:53:31;;;;;;;10.90;5.68;;;5.00;99.90;;;;;;5072954;28;20035;-70
2024/03/26 03:55:57;;;;;;;9.55;4.10;;;5.00;99.90;;;;;;5072144;28;20094;-71
2024/03/26 03:58:22;;;;;;;5.68;3.67;;;5.00;99.90;;;;;;5073492;28;20032;-71
2024/03/26 04:00:48;;;;;;;5.43;3.88;;;5.00;99.90;;;;;;5071875;28;20044;-71
2024/03/26 04:03:14;;;;;;;11.45;4.38;;;4.90;99.90;;;;;;5072698;28;20040;-70
2024/03/26 04:05:40;;;;;;;7.15;3.80;;;4.90;99.90;;;;;;5073367;28;20492;-70
2024/03/26 04:08:06;;;;;;;12.65;4.30;;;5.00;99.90;;;;;;5071599;28;20488;-70
2024/03/26 04:10:37;;;;;;;9.70;4.00;;;4.90;99.90;;;;;;5073119;28;20083;-70
2024/03/26 04:13:03;;;;;;;10.35;4.82;;;4.90;99.90;;;;;;5072771;28;20407;-70
2024/03/26 04:15:29;;;;;;;11.65;3.72;;;4.90;99.90;;;;;;5073104;28;20040;-71
2024/03/26 04:17:54;;;;;;;8.10;4.97;;;4.90;99.90;;;;;;5072912;28;20040;-71
2024/03/26 04:20:20;;;;;;;10.40;4.57;;;4.90;99.90;;;;;;5071461;28;20041;-71
2024/03/26 04:22:46;;;;;;;11.23;4.03;;;4.80;99.90;;;;;;5072652;28;20044;-70
2024/03/26 04:25:13;;;;;;;10.43;4.90;;;4.80;99.90;;;;;;5071717;28;20041;-70
2024/03/26 04:27:39;;;;;;;12.93;4.13;;;4.90;99.90;;;;;;5072755;28;20033;-71
2024/03/26 04:30:06;;;;;;;10.25;3.92;;;4.80;99.90;;;;;;5072388;28;20041;-71
2024/03/26 04:32:33;;;;;;;9.60;4.03;;;4.80;99.90;;;;;;5071090;28;20409;-70
2024/03/26 04:34:58;;;;;;;10.27;4.53;;;4.80;99.90;;;;;;5072729;28;20051;-71
2024/03/26 04:37:24;;;;;;;8.10;3.30;;;4.80;99.90;;;;;;5072500;28;20041;-73
2024/03/26 04:39:50;;;;;;;7.80;3.65;;;4.80;99.90;;;;;;5071243;28;20048;-73
2024/03/26 04:42:15;;;;;;;8.38;3.85;;;4.80;99.90;;;;;;5072137;28;20043;-73
2024/03/26 04:44:41;;;;;;;9.32;4.03;;;4.80;99.90;;;;;;5072417;28;20045;-73
2024/03/26 04:47:07;;;;;;;8.60;4.70;;;4.80;99.90;;;;;;5072388;28;20075;-73
2024/03/26 04:49:33;;;;;;;9.23;4.35;;;4.80;99.90;;;;;;5071173;28;20457;-73
2024/03/26 04:51:59;;;;;;;11.60;4.38;;;4.80;99.90;;;;;;5072403;28;20068;-73
2024/03/26 04:54:25;;;;;;;10.95;4.60;;;4.80;99.90;;;;;;5070584;28;20062;-73
2024/03/26 04:56:50;;;;;;;9.48;5.38;;;4.80;99.90;;;;;;5072252;28;20124;-73
2024/03/26 04:59:16;;;;;;;9.95;4.20;;;4.80;99.90;;;;;;5071898;28;20036;-73
2024/03/26 05:01:42;;;;;;;8.60;4.57;;;4.90;99.90;;;;;;5072175;28;20113;-73
2024/03/26 05:04:08;;;;;;;7.13;3.75;;;4.80;99.90;;;;;;5069777;28;20048;-73
2024/03/26 05:06:33;;;;;;;13.25;4.10;;;4.80;99.90;;;;;;5072021;28;20036;-73
2024/03/26 05:08:59;;;;;;;8.48;4.38;;;4.70;99.90;;;;;;5072050;28;20040;-73
2024/03/26 05:11:25;;;;;;;10.82;3.90;;;4.70;99.90;;;;;;5071987;28;20059;-73
2024/03/26 05:13:50;;;;;;;7.38;3.50;;;4.70;99.90;;;;;;5071475;28;20075;-73
2024/03/26 05:16:16;;;;;;;14.65;4.05;;;4.70;99.90;;;;;;5071855;28;20086;-73
2024/03/26 05:18:42;;;;;;;6.68;3.25;;;4.80;99.90;;;;;;5071965;28;20064;-73
2024/03/26 05:21:07;;;;;;;14.07;4.15;;;4.80;99.90;;;;;;5070331;28;20047;-73
2024/03/26 05:23:33;;;;;;;13.20;5.70;;;4.70;99.90;;;;;;5071155;28;20040;-71
2024/03/26 05:25:59;;;;;;;11.32;4.88;;;4.80;99.90;;;;;;5071687;28;20400;-70
2024/03/26 05:28:24;;;;;;;10.10;4.80;;;4.80;99.90;;;;;;5070253;28;20488;-71
2024/03/26 05:30:50;;;;;;;12.55;4.75;;;4.70;99.90;;;;;;5071377;28;20040;-70
2024/03/26 05:33:16;;;;;;;11.30;3.72;;;4.80;99.90;;;;;;5071448;28;20033;-70
2024/03/26 05:35:44;;;;;;;6.47;3.40;;;4.80;99.90;;;;;;5071852;28;20036;-71
2024/03/26 05:38:10;;;;;;;8.40;3.80;;;4.70;99.90;;;;;;5086144;22;20068;-71
2024/03/26 05:40:35;;;;;;;7.97;3.83;;;4.80;99.90;;;;;;5069876;28;20488;-73
2024/03/26 05:43:01;;;;;;;7.50;4.28;;;4.70;99.90;;;;;;5069739;28;20480;-73
2024/03/26 05:45:27;;;;;;;15.52;4.65;;;4.80;99.90;;;;;;5070314;28;20043;-73
2024/03/26 05:47:52;;;;;;;7.03;3.95;;;4.80;99.90;;;;;;5071368;28;20496;-73
2024/03/26 05:50:18;;;;;;;12.80;3.55;;;4.80;99.90;;;;;;5070188;28;20080;-73
2024/03/26 05:52:44;;;;;;;6.82;3.35;;;4.70;99.90;;;;;;5069813;28;20562;-73
2024/03/26 05:55:09;;;;;;;11.80;4.07;;;4.80;99.90;;;;;;5070236;28;20059;-73
2024/03/26 05:57:35;;;;;;;9.23;4.57;;;4.70;99.90;;;;;;5071059;28;20114;-73
2024/03/26 06:00:01;;;;;;;10.07;4.50;;;4.80;99.90;;;;;;5071148;28;20492;-72
2024/03/26 06:02:26;;;;;;;7.85;3.70;;;4.70;99.90;;;;;;5070880;28;20041;-72
2024/03/26 06:04:52;;;;;;;11.32;4.05;;;4.70;99.90;;;;;;5071065;28;20044;-72
2024/03/26 06:07:18;;;;;;;9.18;4.18;;;4.70;99.90;;;;;;5072098;28;20121;-71
2024/03/26 06:09:43;;;;;;;6.88;3.75;;;4.80;99.90;;;;;;5069818;28;20488;-70
2024/03/26 06:12:09;;;;;;;7.93;3.65;;;4.80;99.90;;;;;;5069615;28;20123;-70
2024/03/26 06:14:35;;;;;;;7.93;4.32;;;4.80;99.90;;;;;;5070703;28;20036;-70
2024/03/26 06:17:00;;;;;;;6.47;3.50;;;4.90;99.90;;;;;;5075480;28;20063;-73
2024/03/26 06:19:26;;;;;;;7.70;3.38;;;4.80;99.90;;;;;;5073778;28;20044;-72
2024/03/26 06:21:52;;;;;;;9.77;3.78;;;4.90;99.90;;;;;;5075390;28;20047;-72
2024/03/26 06:24:18;;;;;;;6.50;4.28;;;5.00;99.90;;;;;;5074788;28;20040;-71
2024/03/26 06:26:44;;;;;;;11.05;4.35;;;5.10;99.90;;;;;;5074916;28;20055;-72
2024/03/26 06:29:10;;;;;;;13.02;4.60;;;5.20;99.90;;;;;;5073539;28;20033;-70
2024/03/26 06:31:36;;;;;;;8.07;3.55;;;5.30;99.90;;;;;;5073815;28;20067;-70
2024/03/26 06:34:01;;;;;;;7.90;3.58;;;5.30;99.90;;;;;;5073301;28;20045;-72
2024/03/26 06:36:27;;;;;;;7.85;3.58;;;5.30;99.90;;;;;;5073843;28;20040;-73
2024/03/26 06:38:53;;;;;;;8.32;4.88;;;5.30;99.90;;;;;;5074759;28;20040;-72
2024/03/26 06:41:19;;;;;;;13.50;7.13;;;5.20;99.90;;;;;;5073408;28;20043;-73
2024/03/26 06:43:45;;;;;;;8.25;3.45;;;5.30;99.90;;;;;;5073080;28;20040;-73
2024/03/26 06:46:10;;;;;;;7.18;3.70;;;5.30;99.90;;;;;;5074916;28;20037;-72
2024/03/26 06:48:37;;;;;;;12.65;4.63;;;5.40;99.90;;;;;;5074740;28;20047;-71
2024/03/26 06:51:04;;;;;;;8.77;3.63;;;5.40;99.90;;;;;;5073215;28;20044;-71
2024/03/26 06:53:29;;;;;;;6.80;4.25;;;5.30;99.90;;;;;;5056201;28;20041;-71
2024/03/26 06:55:55;;;;;;;6.55;3.40;;;5.40;99.90;;;;;;5073493;28;20045;-71
2024/03/26 06:58:22;;;;;;;6.70;3.60;;;5.40;99.90;;;;;;5073248;28;20049;-72
2024/03/26 07:00:48;;;;;;;10.80;3.65;;;5.40;99.90;;;;;;5073249;28;20040;-71
2024/03/26 07:03:14;;;;;;;8.30;3.45;;;5.50;99.90;;;;;;5072733;28;20047;-71
2024/03/26 07:05:40;;;;;;;9.02;3.78;;;5.50;99.90;;;;;;5056398;28;20123;-71
2024/03/26 07:08:05;;;;;;;9.75;5.55;;;5.60;99.90;;;;;;5073074;28;20040;-71
2024/03/26 07:10:31;;;;;;;8.07;3.45;;;5.60;99.90;;;;;;5074003;28;20032;-70
2024/03/26 07:12:57;;;;;;;7.07;4.28;;;5.70;99.90;;;;;;5074097;28;20025;-70
2024/03/26 07:15:23;;;;;;;15.57;4.72;;;5.80;99.90;;;;;;5074356;28;20040;-71
2024/03/26 07:17:49;;;;;;;5.93;3.15;;;5.90;99.90;;;;;;5074159;28;20044;-70
2024/03/26 07:20:14;;;;;;;11.48;4.10;;;6.00;99.90;;;;;;5055987;28;20085;-70
2024/03/26 07:22:40;;;;;;;8.82;3.60;;;6.40;99.90;;;;;;5073736;28;20036;-70
2024/03/26 07:25:06;;;;;;;8.90;3.72;;;6.60;99.90;;;;;;5072489;28;20047;-70
2024/03/26 07:27:32;;;;;;;7.28;3.60;;;6.90;99.90;;;;;;5081518;28;20035;-70
2024/03/26 07:29:59;;;;;;;5.65;2.78;;;7.00;99.90;;;;;;5074969;28;20086;-71
2024/03/26 07:32:25;;;;;;;6.38;3.40;;;7.10;99.90;;;;;;5070401;28;20072;-70
2024/03/26 07:34:50;;;;;;;5.15;3.22;;;7.20;99.90;;;;;;5073658;28;20090;-71
2024/03/26 07:37:16;;;;;;;8.50;3.40;;;7.30;99.90;;;;;;5073661;28;20115;-69
2024/03/26 07:39:42;;;;;;;8.55;3.17;;;7.20;99.90;;;;;;5072239;28;20047;-70
2024/03/26 07:42:08;;;;;;;8.73;4.40;;;7.30;99.90;;;;;;5072600;28;20059;-70
2024/03/26 07:44:33;;;;;;;7.40;3.53;;;7.40;99.90;;;;;;5073892;28;20047;-70
2024/03/26 07:46:59;;;;;;;7.18;3.90;;;7.60;99.90;;;;;;5072382;28;20048;-70
2024/03/26 07:49:24;;;;;;;6.93;3.05;;;7.70;99.90;;;;;;5073564;28;20044;-70
2024/03/26 07:51:51;;;;;;;7.63;3.15;;;8.00;99.90;;;;;;5073584;28;20462;-70
2024/03/26 07:54:20;;;;;;;5.47;2.63;;;8.10;99.90;;;;;;5071534;28;20036;-70
2024/03/26 07:56:46;;;;;;;6.05;3.67;;;8.10;99.90;;;;;;5055456;28;20044;-70
2024/03/26 07:59:11;;;;;;;5.88;3.05;;;8.30;99.90;;;;;;5073397;28;20040;-70
2024/03/26 08:01:37;;;;;;;8.55;3.65;;;8.40;99.90;;;;;;5073494;28;20048;-70
2024/03/26 08:04:03;;;;;;;7.65;3.63;;;8.50;99.90;;;;;;5073009;28;20466;-70
2024/03/26 08:06:28;;;;;;;9.57;3.63;;;8.60;99.90;;;;;;5073209;28;20067;-70
2024/03/26 08:08:54;;;;;;;6.13;3.20;;;8.70;99.90;;;;;;5073139;28;20095;-70
2024/03/26 08:11:20;;;;;;;9.23;4.15;;;8.90;99.90;;;;;;5073108;28;20039;-70
2024/03/26 08:13:45;;;;;;;6.50;2.88;;;9.10;99.90;;;;;;5071678;28;20041;-70
2024/03/26 08:16:11;;;;;;;9.07;3.15;;;9.10;99.90;;;;;;5071593;28;20076;-71
2024/03/26 08:18:37;;;;;;;6.85;3.42;;;9.20;99.90;;;;;;5071888;28;20127;-70
2024/03/26 08:21:03;;;;;;;5.32;2.97;;;9.30;99.90;;;;;;5071888;28;20044;-70
2024/03/26 08:23:29;;;;;;;6.32;2.42;;;9.40;99.90;;;;;;5071240;28;20102;-70
2024/03/26 08:25:55;;;;;;;8.00;3.15;;;9.50;99.90;;;;;;5073037;28;20048;-70
2024/03/26 08:28:21;;;;;;;6.60;3.13;;;9.50;99.90;;;;;;5072951;28;20040;-70
2024/03/26 08:30:49;;;;;;;6.20;3.03;;;9.60;99.90;;;;;;5072696;28;20032;-70
2024/03/26 08:33:15;;;;;;;8.18;2.90;;;9.60;99.90;;;;;;5071035;28;20496;-70
2024/03/26 08:35:41;;;;;;;6.95;3.20;;;9.90;99.90;;;;;;5072714;28;20048;-70
2024/03/26 08:38:07;;;;;;;8.70;2.88;;;10.00;99.90;;;;;;5070446;28;20053;-70
2024/03/26 08:40:33;;;;;;;4.32;3.00;;;10.10;99.90;;;;;;5072424;28;20036;-70
2024/03/26 08:42:59;;;;;;;5.53;3.10;;;10.10;99.90;;;;;;5072338;28;20500;-70
2024/03/26 08:45:25;;;;;;;7.55;3.58;;;10.10;99.90;;;;;;5071161;28;20041;-69
2024/03/26 08:47:51;;;;;;;7.88;2.88;;;10.10;99.90;;;;;;5071201;28;20044;-70
2024/03/26 08:50:17;;;;;;;5.43;2.58;;;10.30;99.90;;;;;;5071011;28;20033;-70
2024/03/26 08:52:43;;;;;;;6.88;3.30;;;10.30;99.90;;;;;;5077167;28;20044;-70
2024/03/26 08:55:09;;;;;;;4.53;2.85;;;10.60;99.90;;;;;;5074695;28;20082;-70
2024/03/26 08:57:35;;;;;;;6.82;2.90;;;10.70;99.90;;;;;;5072161;28;20051;-70
2024/03/26 09:00:10;;;;;;;5.28;2.65;;;10.90;99.90;;;;;;5150415;27;20386;-70
2024/03/26 09:02:37;;;;;;;6.28;3.00;;;10.90;99.90;;;;;;5150160;27;20039;-70
2024/03/26 09:05:03;;;;;;;6.38;2.72;;;10.80;99.90;;;;;;5131975;27;20049;-70
2024/03/26 09:07:29;;;;;;;6.57;3.35;;;10.90;99.90;;;;;;5157615;27;20066;-70
2024/03/26 09:09:55;;;;;;;8.32;3.53;;;10.80;99.90;;;;;;5171264;27;20461;-70
2024/03/26 09:12:21;;;;;;;5.05;2.90;;;10.80;99.90;;;;;;5170879;27;20454;-70
2024/03/26 09:14:46;;;;;;;12.10;3.42;;;10.60;99.90;;;;;;5152478;27;20451;-70
2024/03/26 09:17:15;;;;;;;7.10;2.65;;;10.60;99.90;;;;;;5173721;27;20038;-71
2024/03/26 09:19:41;;;;;;;7.40;2.78;;;10.50;99.90;;;;;;5154732;27;20549;-71
2024/03/26 09:22:07;;;;;;;5.15;3.40;;;10.60;99.90;;;;;;5162110;27;20038;-69
2024/03/26 09:24:33;;;;;;;7.18;3.15;;;10.70;99.90;;;;;;5185863;27;20045;-69
2024/03/26 09:26:59;;;;;;;7.25;2.90;;;10.80;99.90;;;;;;5192051;27;20030;-69
2024/03/26 09:29:25;;;;;;;9.05;3.15;;;10.90;99.90;;;;;;5191768;27;20030;-69
2024/03/26 09:31:50;;;;;;;6.03;3.05;;;10.90;99.90;;;;;;5192078;27;20060;-69
2024/03/26 09:34:16;;;;;;;7.93;3.95;;;10.80;99.90;;;;;;5191257;27;20041;-69
2024/03/26 09:36:42;;;;;;;6.70;3.15;;;10.80;99.90;;;;;;5173108;27;20485;-70
2024/03/26 09:39:09;;;;;;;7.85;3.72;;;10.80;99.90;;;;;;5172749;27;20041;-71
2024/03/26 09:41:38;;;;;;;6.20;3.30;;;10.70;99.90;;;;;;5191864;27;20061;-71
2024/03/26 09:44:04;;;;;;;3.72;2.42;;;10.80;99.90;;;;;;5172262;27;20041;-71
2024/03/26 09:46:30;;;;;;;8.48;3.33;;;10.70;99.90;;;;;;5168347;27;20140;-71
2024/03/26 09:48:58;;;;;;;5.57;3.15;;;10.70;99.90;;;;;;5169358;27;20492;-71
2024/03/26 09:51:26;;;;;;;7.43;2.97;;;10.80;99.90;;;;;;5153719;27;20098;-71
2024/03/26 09:53:56;;;;;;;6.25;2.92;;;10.90;99.90;;;;;;5173457;27;20030;-71
2024/03/26 09:56:23;;;;;;;5.70;3.38;;;10.90;99.90;;;;;;5169349;27;20662;-71
2024/03/26 09:58:48;;;;;;;6.03;2.92;;;10.80;99.90;;;;;;5144374;27;20040;-71
2024/03/26 10:01:17;;;;;;;7.95;3.45;;;10.90;99.90;;;;;;5164993;27;20429;-71
2024/03/26 10:03:43;;;;;;;7.85;5.35;;;11.00;99.90;;;;;;5130225;27;20459;-71
2024/03/26 10:06:12;;;;;;;8.35;3.15;;;11.00;99.90;;;;;;5142944;27;20417;-70
2024/03/26 10:08:38;;;;;;;5.85;2.88;;;10.90;99.90;;;;;;5170026;27;20031;-71
2024/03/26 10:11:04;;;;;;;7.18;3.30;;;10.90;99.90;;;;;;5158187;27;20027;-71
2024/03/26 10:13:30;;;;;;;7.22;3.00;;;10.90;99.90;;;;;;5136974;27;20035;-71
2024/03/26 10:15:55;;;;;;;4.10;3.08;;;10.90;99.90;;;;;;5137393;27;20067;-71
2024/03/26 10:18:21;;;;;;;5.93;3.40;;;10.90;99.90;;;;;;5172499;27;20039;-71
2024/03/26 10:20:47;;;;;;;6.32;3.25;;;10.90;99.90;;;;;;5158000;27;20408;-69
2024/03/26 10:23:12;;;;;;;4.30;2.95;;;10.90;99.90;;;;;;5157777;27;20042;-71
2024/03/26 10:25:38;;;;;;;4.90;3.20;;;10.90;99.90;;;;;;5158114;27;20034;-71
2024/03/26 10:28:04;;;;;;;5.07;3.13;;;11.10;99.90;;;;;;5157925;27;20046;-71
2024/03/26 10:30:30;;;;;;;6.35;3.20;;;11.00;99.90;;;;;;5169976;27;20113;-71
2024/03/26 10:32:57;;;;;;;4.20;3.40;;;11.10;99.90;;;;;;5151471;27;20038;-71
2024/03/26 10:35:27;;;;;;;5.13;3.05;;;11.30;99.90;;;;;;5167273;27;20046;-71
2024/03/26 10:37:54;;;;;;;7.53;3.08;;;11.30;99.90;;;;;;5173475;27;20034;-71
2024/03/26 10:40:26;;;;;;;8.15;3.20;;;11.30;99.90;;;;;;5174542;27;20038;-70
2024/03/26 10:42:52;;;;;;;6.10;3.25;;;11.20;99.90;;;;;;5169107;27;20034;-71
2024/03/26 10:45:18;;;;;;;5.28;2.95;;;11.30;99.90;;;;;;5176254;27;20040;-71
2024/03/26 10:47:49;;;;;;;5.75;3.17;;;11.30;99.90;;;;;;5176258;27;20109;-68
2024/03/26 10:50:14;;;;;;;6.63;3.03;;;11.40;99.90;;;;;;5157459;27;20034;-71
2024/03/26 10:52:40;;;;;;;8.95;3.50;;;11.30;99.90;;;;;;5175878;27;20030;-71
2024/03/26 10:55:07;;;;;;;5.30;3.28;;;11.40;99.90;;;;;;5171116;27;20085;-71
2024/03/26 10:57:34;;;;;;;6.38;3.65;;;11.40;99.90;;;;;;5146931;27;20027;-70
2024/03/26 11:00:10;;;;;;;5.28;2.95;;;11.40;99.90;;;;;;5163387;27;20159;-71
2024/03/26 11:02:46;;;;;;;5.60;3.30;;;11.40;99.90;;;;;;5160867;27;20764;-68
2024/03/26 11:05:14;;;;;;;5.40;3.10;;;11.40;99.90;;;;;;5136865;27;20491;-68
2024/03/26 11:07:42;;;;;;;3.67;2.95;;;11.30;99.90;;;;;;5155108;27;20039;-68
2024/03/26 11:10:13;;;;;;;6.50;3.30;;;11.30;99.90;;;;;;5136376;27;20051;-68
2024/03/26 11:12:40;;;;;;;4.45;3.58;;;11.30;99.90;;;;;;5135925;27;20039;-69
2024/03/26 11:15:15;;;;;;;5.75;3.15;;;11.30;99.90;;;;;;5136451;27;20038;-68
2024/03/26 11:18:05;;;;;;;4.72;3.00;;;11.30;99.90;;;;;;5154481;27;20066;-69
2024/03/26 11:20:32;;;;;;;5.80;3.03;;;11.30;99.90;;;;;;5135202;27;20042;-69
2024/03/26 11:23:03;;;;;;;5.82;3.33;;;11.30;99.90;;;;;;5134381;27;20066;-68
2024/03/26 11:25:32;;;;;;;3.20;2.78;;;11.30;99.90;;;;;;5154527;27;20092;-69
2024/03/26 11:28:00;;;;;;;6.78;3.38;;;11.40;99.90;;;;;;5135797;27;20074;-68
2024/03/26 11:30:29;;;;;;;5.47;3.42;;;11.30;99.90;;;;;;5152197;27;20102;-69
2024/03/26 11:32:57;;;;;;;6.93;2.90;;;11.30;99.90;;;;;;5123504;27;20065;-68
2024/03/26 11:35:25;;;;;;;6.13;2.83;;;11.40;99.90;;;;;;5154472;27;20030;-69
2024/03/26 11:37:52;;;;;;;9.48;3.67;;;11.50;99.90;;;;;;5154222;27;20030;-70
2024/03/26 11:40:19;;;;;;;4.57;3.05;;;11.60;99.90;;;;;;5154173;27;20050;-70
2024/03/26 11:42:48;;;;;;;5.70;2.80;;;11.70;99.90;;;;;;5154015;27;20058;-69
2024/03/26 11:45:15;;;;;;;4.00;3.13;;;11.60;99.90;;;;;;5154285;27;20037;-69
2024/03/26 11:47:41;;;;;;;4.25;2.65;;;11.70;99.90;;;;;;5153893;27;20574;-69
2024/03/26 11:50:08;;;;;;;6.78;3.28;;;11.70;99.90;;;;;;5135393;27;20045;-69
2024/03/26 11:52:35;;;;;;;6.40;2.88;;;11.70;99.90;;;;;;5153757;27;20031;-69
2024/03/26 11:55:01;;;;;;;7.63;4.15;;;11.70;99.70;;;;;;5135519;27;20040;-69
2024/03/26 11:57:28;;;;;;;6.90;3.15;;;11.90;99.90;;;;;;5154117;27;20378;-69
2024/03/26 11:59:53;;;;;;;5.63;2.88;;;12.00;99.90;;;;;;5153641;27;20035;-69
2024/03/26 12:02:19;;;;;;;6.00;3.45;;;12.10;99.90;;;;;;5153269;27;20134;-69
2024/03/26 12:04:45;;;;;;;5.88;3.55;;;12.20;99.90;;;;;;5154192;27;20035;-68
2024/03/26 12:07:13;;;;;;;6.65;3.35;;;12.20;99.90;;;;;;5135366;27;20043;-68
2024/03/26 12:09:39;;;;;;;4.18;3.42;;;12.30;99.90;;;;;;5153722;27;20477;-69
2024/03/26 12:12:06;;;;;;;7.45;3.10;;;12.30;99.90;;;;;;5135133;27;20082;-68
2024/03/26 12:14:33;;;;;;;9.70;3.35;;;12.30;99.90;;;;;;5135483;27;20034;-69
2024/03/26 12:16:58;;;;;;;4.38;3.15;;;12.20;99.90;;;;;;5153300;27;20167;-71
2024/03/26 12:19:26;;;;;;;5.10;3.15;;;12.20;99.80;;;;;;5134808;27;20117;-69
2024/03/26 12:21:52;;;;;;;6.28;3.13;;;12.20;99.90;;;;;;5153793;27;20035;-69
2024/03/26 12:24:18;;;;;;;4.28;2.95;;;12.20;99.90;;;;;;5117348;27;20076;-69
2024/03/26 12:26:44;;;;;;;5.65;3.13;;;12.20;99.90;;;;;;5135235;27;20041;-69
2024/03/26 12:29:10;;;;;;;4.05;3.40;;;12.10;99.90;;;;;;5134757;27;20051;-69
2024/03/26 12:31:37;;;;;;;6.50;3.30;;;12.10;99.90;;;;;;5134953;27;20046;-69
2024/03/26 12:34:13;;;;;;;6.53;2.45;;;12.00;99.90;;;;;;5152946;27;20041;-69
2024/03/26 12:36:39;;;;;;;8.07;3.10;;;12.00;99.70;;;;;;5134711;27;20034;-69
2024/03/26 12:39:09;;;;;;;4.35;2.90;;;12.00;99.90;;;;;;5133726;27;20049;-69
2024/03/26 12:41:35;;;;;;;5.75;3.05;;;12.00;99.90;;;;;;5134935;27;20428;-70
2024/03/26 12:44:04;;;;;;;5.22;3.20;;;12.00;99.90;;;;;;5152808;27;20831;-70